Time;durP1;ratioP1;P1;durP2;ratioP2;P2;SDS_P1;SDS_P2;PMS_P1;PMS_P2;Temp;Humidity;BMP_temperature;BMP_pressure;BME280_temperature;BME280_humidity;BME280_pressure;Samples;Min_cycle;Max_cycle;Signal;HPM_P1;HPM_P2
2024/01/14 00:01:40;;;;;;;139.87;47.80;;;2.80;97.60;;;;;;764989;185;27090;-75
2024/01/14 00:04:06;;;;;;;116.63;39.13;;;2.70;97.70;;;;;;762489;188;26540;-75
2024/01/14 00:06:33;;;;;;;113.57;39.47;;;2.70;97.70;;;;;;762412;188;27090;-76
2024/01/14 00:08:59;;;;;;;130.37;42.37;;;2.70;97.70;;;;;;765251;183;26527;-76
2024/01/14 00:11:26;;;;;;;125.60;39.93;;;2.70;97.80;;;;;;773058;184;26490;-75
2024/01/14 00:13:53;;;;;;;123.17;42.67;;;2.70;97.80;;;;;;736022;191;26513;-76
2024/01/14 00:16:19;;;;;;;142.93;42.83;;;2.70;97.70;;;;;;762378;188;27028;-76
2024/01/14 00:18:46;;;;;;;115.30;40.67;;;2.70;97.70;;;;;;762431;188;26474;-76
2024/01/14 00:21:13;;;;;;;155.27;51.07;;;2.70;97.70;;;;;;762490;188;26477;-76
2024/01/14 00:23:39;;;;;;;114.33;39.87;;;2.80;97.80;;;;;;763083;185;28045;-75
2024/01/14 00:26:06;;;;;;;128.03;43.17;;;2.80;97.80;;;;;;771334;185;26515;-76
2024/01/14 00:28:32;;;;;;;150.03;45.83;;;2.80;97.70;;;;;;776496;185;27030;-76
2024/01/14 00:30:59;;;;;;;130.60;40.07;;;2.80;97.70;;;;;;776433;185;26475;-76
2024/01/14 00:33:26;;;;;;;169.53;53.50;;;2.80;97.70;;;;;;775121;184;27086;-75
2024/01/14 00:35:52;;;;;;;163.27;50.30;;;2.80;97.60;;;;;;776870;184;26492;-75
2024/01/14 00:38:19;;;;;;;151.00;47.33;;;2.80;97.60;;;;;;774855;181;26461;-75
2024/01/14 00:40:45;;;;;;;134.47;44.20;;;2.80;97.60;;;;;;770475;184;26546;-75
2024/01/14 00:43:12;;;;;;;160.10;50.57;;;2.70;97.50;;;;;;768390;181;26509;-76
2024/01/14 00:45:39;;;;;;;106.53;36.83;;;2.70;97.60;;;;;;763643;188;27074;-75
2024/01/14 00:48:05;;;;;;;86.63;30.43;;;2.80;97.70;;;;;;759177;181;26535;-79
2024/01/14 00:50:32;;;;;;;98.97;34.10;;;2.70;97.50;;;;;;776199;184;26547;-77
2024/01/14 00:52:59;;;;;;;107.37;35.07;;;2.80;97.60;;;;;;790115;181;26524;-76
2024/01/14 00:55:25;;;;;;;114.63;37.63;;;2.80;97.60;;;;;;789704;181;26459;-76
2024/01/14 00:57:52;;;;;;;95.67;32.67;;;2.80;97.60;;;;;;774812;181;27066;-77
2024/01/14 01:00:18;;;;;;;133.77;40.63;;;2.80;97.60;;;;;;776776;184;26552;-76
2024/01/14 01:02:45;;;;;;;111.20;37.57;;;2.80;97.60;;;;;;777689;182;26509;-76
2024/01/14 01:05:12;;;;;;;104.63;35.13;;;2.80;97.60;;;;;;773454;184;26494;-76
2024/01/14 01:07:38;;;;;;;98.77;34.90;;;2.80;97.60;;;;;;760950;183;26557;-77
2024/01/14 01:10:05;;;;;;;88.87;31.50;;;2.80;97.50;;;;;;786580;182;26473;-76
2024/01/14 01:12:32;;;;;;;92.57;31.93;;;2.80;97.50;;;;;;780491;179;27059;-75
2024/01/14 01:14:58;;;;;;;86.97;31.37;;;2.80;97.50;;;;;;772282;184;26452;-74
2024/01/14 01:17:25;;;;;;;90.80;32.77;;;2.80;97.60;;;;;;772161;186;27032;-75
2024/01/14 01:19:51;;;;;;;99.03;32.53;;;2.80;97.60;;;;;;785335;182;26522;-77
2024/01/14 01:22:18;;;;;;;102.70;36.10;;;2.80;97.60;;;;;;778612;182;27017;-77
2024/01/14 01:24:44;;;;;;;95.70;32.53;;;2.80;97.60;;;;;;774963;182;26508;-76
2024/01/14 01:27:11;;;;;;;101.17;32.77;;;2.80;97.60;;;;;;772156;184;27022;-76
2024/01/14 01:29:38;;;;;;;128.67;39.67;;;2.80;97.60;;;;;;776714;182;26503;-76
2024/01/14 01:32:05;;;;;;;154.60;45.47;;;2.80;97.60;;;;;;781523;182;28121;-75
2024/01/14 01:34:31;;;;;;;147.10;46.70;;;2.80;97.60;;;;;;787118;182;27008;-76
2024/01/14 01:36:58;;;;;;;146.13;47.77;;;2.80;97.50;;;;;;786182;182;26545;-76
2024/01/14 01:39:25;;;;;;;143.83;43.93;;;2.80;97.50;;;;;;778214;182;26465;-77
2024/01/14 01:41:51;;;;;;;102.97;34.90;;;2.80;97.60;;;;;;781198;182;26523;-75
2024/01/14 01:44:18;;;;;;;97.63;34.27;;;2.80;97.50;;;;;;772241;184;26486;-76
2024/01/14 01:46:44;;;;;;;130.00;43.07;;;2.80;97.40;;;;;;772093;183;27036;-76
2024/01/14 01:49:11;;;;;;;129.17;40.43;;;2.80;97.60;;;;;;780404;181;26482;-76
2024/01/14 01:51:38;;;;;;;108.53;36.93;;;2.80;97.40;;;;;;786925;182;26534;-77
2024/01/14 01:54:04;;;;;;;86.70;30.40;;;2.80;97.30;;;;;;788503;182;26570;-73
2024/01/14 01:56:31;;;;;;;92.37;33.87;;;2.80;97.30;;;;;;788356;181;26545;-75
2024/01/14 01:58:57;;;;;;;67.23;22.10;;;2.70;97.30;;;;;;781812;182;27004;-76
2024/01/14 02:01:24;;;;;;;82.07;29.43;;;2.70;97.30;;;;;;786709;181;26511;-76
2024/01/14 02:03:51;;;;;;;92.47;30.60;;;2.70;97.40;;;;;;777455;182;27046;-76
2024/01/14 02:06:17;;;;;;;86.73;30.83;;;2.70;97.40;;;;;;777087;181;26479;-76
2024/01/14 02:08:44;;;;;;;73.83;27.40;;;2.70;97.60;;;;;;772658;183;27028;-76
2024/01/14 02:11:10;;;;;;;169.67;57.23;;;2.70;97.60;;;;;;786542;182;26523;-76
2024/01/14 02:13:37;;;;;;;113.30;37.30;;;2.70;97.60;;;;;;787212;181;27103;-78
2024/01/14 02:16:04;;;;;;;164.50;50.53;;;2.70;97.60;;;;;;787426;182;26554;-77
2024/01/14 02:18:30;;;;;;;97.77;33.13;;;2.70;97.60;;;;;;787662;181;27019;-77
2024/01/14 02:20:57;;;;;;;96.77;32.90;;;2.70;97.50;;;;;;784688;182;26804;-78
2024/01/14 02:23:23;;;;;;;82.97;29.00;;;2.70;97.40;;;;;;787546;181;27017;-77
2024/01/14 02:25:50;;;;;;;82.30;29.67;;;2.70;97.40;;;;;;788530;182;26481;-75
2024/01/14 02:28:17;;;;;;;101.77;34.00;;;2.70;97.40;;;;;;788776;182;27013;-78
2024/01/14 02:30:43;;;;;;;87.33;30.67;;;2.70;97.30;;;;;;782070;180;26485;-78
2024/01/14 02:33:10;;;;;;;75.30;27.47;;;2.70;97.40;;;;;;773582;182;27017;-75
2024/01/14 02:35:36;;;;;;;74.97;26.53;;;2.70;97.40;;;;;;775815;182;26455;-77
2024/01/14 02:38:03;;;;;;;80.73;28.23;;;2.70;97.40;;;;;;785451;182;27059;-76
2024/01/14 02:40:31;;;;;;;85.33;28.10;;;2.70;97.30;;;;;;782804;182;26462;-76
2024/01/14 02:42:56;;;;;;;82.40;30.17;;;2.70;97.20;;;;;;774321;182;26458;-76
2024/01/14 02:45:23;;;;;;;74.03;27.77;;;2.70;97.20;;;;;;787015;182;26538;-76
2024/01/14 02:47:49;;;;;;;86.70;31.50;;;2.70;97.20;;;;;;785987;182;26516;-76
2024/01/14 02:50:16;;;;;;;76.23;29.40;;;2.70;97.10;;;;;;777754;182;26478;-77
2024/01/14 02:52:43;;;;;;;75.77;27.47;;;2.70;97.00;;;;;;772635;183;26481;-77
2024/01/14 02:55:09;;;;;;;72.63;25.97;;;2.70;97.10;;;;;;756128;188;26552;-77
2024/01/14 02:57:36;;;;;;;64.57;24.23;;;2.70;97.00;;;;;;771739;186;26475;-77
2024/01/14 03:00:03;;;;;;;71.10;28.13;;;2.70;97.00;;;;;;761434;184;26536;-77
2024/01/14 03:02:29;;;;;;;71.17;27.77;;;2.70;97.00;;;;;;775875;182;26454;-76
2024/01/14 03:04:56;;;;;;;74.07;28.60;;;2.70;97.00;;;;;;766509;187;26470;-77
2024/01/14 03:07:22;;;;;;;110.07;38.97;;;2.70;97.00;;;;;;766445;187;26500;-74
2024/01/14 03:09:49;;;;;;;67.90;26.27;;;2.70;97.00;;;;;;777457;183;26448;-77
2024/01/14 03:12:15;;;;;;;63.27;25.33;;;2.80;97.00;;;;;;776323;184;26466;-75
2024/01/14 03:14:42;;;;;;;63.70;23.83;;;2.80;97.00;;;;;;774853;184;26471;-76
2024/01/14 03:17:09;;;;;;;62.77;24.43;;;2.80;96.90;;;;;;778759;184;26473;-73
2024/01/14 03:19:35;;;;;;;60.77;22.60;;;2.80;97.00;;;;;;775007;184;26463;-76
2024/01/14 03:22:02;;;;;;;72.53;26.63;;;2.80;97.00;;;;;;775573;183;26453;-76
2024/01/14 03:24:28;;;;;;;54.60;22.30;;;2.80;96.90;;;;;;773341;182;26507;-76
2024/01/14 03:26:55;;;;;;;65.97;24.73;;;2.80;96.80;;;;;;777782;184;26514;-76
2024/01/14 03:29:22;;;;;;;62.77;25.07;;;2.80;96.90;;;;;;780876;181;26542;-73
2024/01/14 03:31:48;;;;;;;61.80;24.50;;;2.80;96.80;;;;;;775327;184;26468;-76
2024/01/14 03:34:15;;;;;;;55.37;22.50;;;2.80;96.80;;;;;;775372;185;26994;-76
2024/01/14 03:36:41;;;;;;;52.13;23.00;;;2.80;96.80;;;;;;777045;184;26524;-77
2024/01/14 03:39:08;;;;;;;66.07;26.30;;;2.80;96.80;;;;;;776384;183;27090;-76
2024/01/14 03:41:35;;;;;;;75.97;27.87;;;2.80;96.80;;;;;;775518;182;26497;-76
2024/01/14 03:44:01;;;;;;;138.13;43.80;;;2.80;96.70;;;;;;774705;181;27082;-76
2024/01/14 03:46:28;;;;;;;64.37;25.13;;;2.90;96.80;;;;;;778964;181;26471;-76
2024/01/14 03:48:54;;;;;;;65.03;26.13;;;2.90;96.60;;;;;;782087;182;26474;-76
2024/01/14 03:51:21;;;;;;;64.63;25.00;;;2.90;96.60;;;;;;787209;181;27064;-76
2024/01/14 03:53:48;;;;;;;59.47;22.80;;;2.80;96.60;;;;;;776986;182;26491;-76
2024/01/14 03:56:14;;;;;;;56.87;23.03;;;2.80;96.60;;;;;;775319;182;26975;-75
2024/01/14 03:58:41;;;;;;;50.70;20.50;;;2.80;96.70;;;;;;787573;182;26513;-77
2024/01/14 04:01:07;;;;;;;86.70;34.40;;;2.80;96.60;;;;;;772681;182;27030;-76
2024/01/14 04:03:34;;;;;;;66.00;24.57;;;2.80;96.60;;;;;;784582;182;26559;-77
2024/01/14 04:06:01;;;;;;;102.50;36.87;;;2.80;96.60;;;;;;777263;182;27024;-77
2024/01/14 04:08:27;;;;;;;147.67;46.07;;;2.80;96.70;;;;;;779292;182;26466;-75
2024/01/14 04:10:54;;;;;;;76.70;29.07;;;2.80;96.70;;;;;;788413;179;26636;-77
2024/01/14 04:13:20;;;;;;;118.27;38.47;;;2.80;96.70;;;;;;791983;180;26459;-77
2024/01/14 04:15:47;;;;;;;68.43;24.80;;;2.70;96.60;;;;;;787908;180;26454;-74
2024/01/14 04:18:13;;;;;;;74.17;29.13;;;2.70;96.60;;;;;;785198;180;26527;-77
2024/01/14 04:20:40;;;;;;;108.83;37.30;;;2.70;96.70;;;;;;772863;185;26446;-78
2024/01/14 04:23:07;;;;;;;66.97;25.00;;;2.70;96.80;;;;;;774095;184;26525;-75
2024/01/14 04:25:33;;;;;;;52.27;21.53;;;2.70;96.70;;;;;;776407;183;26524;-76
2024/01/14 04:28:00;;;;;;;55.50;20.83;;;2.70;96.80;;;;;;773686;184;26468;-74
2024/01/14 04:30:27;;;;;;;67.40;25.07;;;2.70;96.80;;;;;;776158;182;26493;-75
2024/01/14 04:32:53;;;;;;;90.03;30.03;;;2.70;96.90;;;;;;775772;182;26475;-75
2024/01/14 04:35:20;;;;;;;64.87;23.77;;;2.70;97.00;;;;;;771904;185;27029;-74
2024/01/14 04:37:46;;;;;;;87.83;30.20;;;2.70;97.00;;;;;;773252;185;26490;-74
2024/01/14 04:40:13;;;;;;;66.80;26.13;;;2.70;97.00;;;;;;772618;185;27063;-75
2024/01/14 04:42:40;;;;;;;53.23;21.70;;;2.70;96.90;;;;;;772744;183;26445;-75
2024/01/14 04:45:07;;;;;;;54.23;21.37;;;2.70;96.90;;;;;;775142;184;27074;-75
2024/01/14 04:47:34;;;;;;;47.00;18.87;;;2.70;96.80;;;;;;776542;182;26466;-75
2024/01/14 04:50:00;;;;;;;51.67;19.63;;;2.60;96.70;;;;;;775536;184;27060;-75
2024/01/14 04:52:26;;;;;;;50.57;20.20;;;2.60;96.80;;;;;;776838;181;26447;-75
2024/01/14 04:54:53;;;;;;;50.07;20.40;;;2.60;96.70;;;;;;784753;182;27056;-76
2024/01/14 04:57:20;;;;;;;48.77;17.67;;;2.60;96.80;;;;;;772164;186;26474;-77
2024/01/14 04:59:46;;;;;;;49.77;19.63;;;2.60;96.60;;;;;;763093;185;27064;-74
2024/01/14 05:02:13;;;;;;;52.67;20.93;;;2.60;96.70;;;;;;771489;185;26446;-76
2024/01/14 05:04:39;;;;;;;52.20;20.73;;;2.60;96.80;;;;;;776488;184;28134;-76
2024/01/14 05:07:06;;;;;;;75.80;28.80;;;2.60;96.70;;;;;;786636;181;26492;-76
2024/01/14 05:09:33;;;;;;;48.80;19.50;;;2.70;96.90;;;;;;785462;181;26514;-75
2024/01/14 05:11:59;;;;;;;48.60;19.40;;;2.70;96.80;;;;;;774875;185;26506;-76
2024/01/14 05:14:26;;;;;;;49.73;19.47;;;2.70;96.70;;;;;;772578;183;26524;-76
2024/01/14 05:16:52;;;;;;;51.87;19.47;;;2.70;96.70;;;;;;777354;184;26505;-75
2024/01/14 05:19:19;;;;;;;97.90;31.53;;;2.70;96.70;;;;;;789321;181;26513;-75
2024/01/14 05:21:45;;;;;;;81.60;25.20;;;2.70;96.70;;;;;;781157;181;27044;-76
2024/01/14 05:24:12;;;;;;;60.77;21.63;;;2.70;96.80;;;;;;791737;179;26453;-76
2024/01/14 05:26:40;;;;;;;68.47;24.70;;;2.70;96.70;;;;;;774055;185;27036;-77
2024/01/14 05:29:05;;;;;;;118.13;37.23;;;2.70;96.80;;;;;;773157;182;26515;-77
2024/01/14 05:31:32;;;;;;;109.70;33.70;;;2.70;96.90;;;;;;784656;181;27042;-74
2024/01/14 05:33:58;;;;;;;66.10;26.30;;;2.70;96.70;;;;;;786459;181;26515;-77
2024/01/14 05:36:25;;;;;;;52.47;20.63;;;2.70;96.80;;;;;;777669;184;26477;-76
2024/01/14 05:38:52;;;;;;;53.50;20.83;;;2.70;96.80;;;;;;773543;185;26513;-77
2024/01/14 05:41:18;;;;;;;54.20;19.27;;;2.70;96.80;;;;;;787003;181;26412;-77
2024/01/14 05:43:45;;;;;;;47.17;19.77;;;2.70;96.80;;;;;;774561;181;26504;-76
2024/01/14 05:46:12;;;;;;;49.87;20.00;;;2.70;96.90;;;;;;772195;186;26533;-78
2024/01/14 05:48:38;;;;;;;48.10;18.93;;;2.70;96.90;;;;;;773725;183;27041;-76
2024/01/14 05:51:05;;;;;;;49.67;20.00;;;2.70;96.80;;;;;;765307;185;26532;-77
2024/01/14 05:53:31;;;;;;;50.17;20.07;;;2.70;96.90;;;;;;765093;186;27064;-77
2024/01/14 05:55:58;;;;;;;45.97;18.23;;;2.70;97.00;;;;;;769507;185;26467;-77
2024/01/14 05:58:25;;;;;;;48.17;19.57;;;2.70;96.90;;;;;;779280;184;27068;-77
2024/01/14 06:00:51;;;;;;;48.47;19.23;;;2.60;96.80;;;;;;779847;183;26450;-78
2024/01/14 06:03:18;;;;;;;49.17;19.77;;;2.60;96.90;;;;;;776432;183;26448;-77
2024/01/14 06:05:44;;;;;;;48.60;18.33;;;2.60;96.90;;;;;;775103;184;26454;-76
2024/01/14 06:08:11;;;;;;;57.53;22.10;;;2.60;96.90;;;;;;780244;181;26550;-77
2024/01/14 06:10:38;;;;;;;49.13;19.63;;;2.50;96.90;;;;;;775966;182;26473;-76
2024/01/14 06:13:04;;;;;;;49.13;20.90;;;2.50;96.90;;;;;;780802;182;26473;-76
2024/01/14 06:15:31;;;;;;;53.70;19.97;;;2.50;97.10;;;;;;785993;181;26631;-76
2024/01/14 06:17:57;;;;;;;54.53;20.53;;;2.50;97.10;;;;;;786883;182;26673;-74
2024/01/14 06:20:24;;;;;;;50.67;20.53;;;2.50;97.00;;;;;;784315;179;27010;-76
2024/01/14 06:22:50;;;;;;;51.90;20.87;;;2.50;97.10;;;;;;778488;182;26512;-76
2024/01/14 06:25:17;;;;;;;52.43;20.80;;;2.50;97.10;;;;;;776244;182;27001;-76
2024/01/14 06:27:44;;;;;;;43.10;17.83;;;2.50;97.10;;;;;;786930;181;26476;-75
2024/01/14 06:30:11;;;;;;;47.23;19.37;;;2.50;97.00;;;;;;786189;182;26515;-76
2024/01/14 06:32:38;;;;;;;45.50;19.00;;;2.50;96.80;;;;;;782733;182;26462;-76
2024/01/14 06:35:05;;;;;;;53.20;19.87;;;2.50;96.80;;;;;;777508;181;26466;-77
2024/01/14 06:37:31;;;;;;;46.23;19.63;;;2.50;96.70;;;;;;788964;181;26525;-76
2024/01/14 06:39:58;;;;;;;49.87;19.77;;;2.50;96.70;;;;;;779890;181;26442;-76
2024/01/14 06:42:25;;;;;;;44.50;18.23;;;2.50;96.70;;;;;;781540;182;26441;-76
2024/01/14 06:44:52;;;;;;;46.80;19.37;;;2.50;96.60;;;;;;773898;182;26511;-76
2024/01/14 06:47:18;;;;;;;47.93;19.67;;;2.50;96.50;;;;;;776671;177;27041;-75
2024/01/14 06:49:45;;;;;;;52.03;19.67;;;2.50;96.60;;;;;;752725;191;26497;-74
2024/01/14 06:52:11;;;;;;;50.70;19.73;;;2.50;96.60;;;;;;759928;188;26557;-74
2024/01/14 06:54:38;;;;;;;48.90;20.67;;;2.50;96.70;;;;;;766678;184;26516;-74
2024/01/14 06:57:05;;;;;;;49.10;20.57;;;2.50;96.60;;;;;;762777;186;26519;-75
2024/01/14 06:59:32;;;;;;;46.83;19.57;;;2.50;96.60;;;;;;771216;185;27014;-75
2024/01/14 07:01:58;;;;;;;45.70;18.30;;;2.50;96.60;;;;;;770390;185;26519;-74
2024/01/14 07:04:25;;;;;;;46.87;18.83;;;2.40;96.70;;;;;;770227;185;27067;-74
2024/01/14 07:06:52;;;;;;;49.60;20.03;;;2.50;96.80;;;;;;770240;185;26560;-75
2024/01/14 07:09:18;;;;;;;48.47;19.83;;;2.50;96.90;;;;;;770279;186;27066;-75
2024/01/14 07:11:45;;;;;;;52.10;21.43;;;2.50;96.80;;;;;;769866;185;26512;-75
2024/01/14 07:14:11;;;;;;;48.60;19.30;;;2.50;96.70;;;;;;770114;186;27032;-75
2024/01/14 07:16:38;;;;;;;54.17;20.87;;;2.50;96.60;;;;;;769955;185;26468;-75
2024/01/14 07:19:05;;;;;;;52.00;20.30;;;2.50;96.70;;;;;;769858;185;26485;-75
2024/01/14 07:21:31;;;;;;;43.40;19.40;;;2.50;96.90;;;;;;769843;186;26449;-75
2024/01/14 07:23:58;;;;;;;45.47;17.83;;;2.60;96.80;;;;;;770165;186;26451;-75
2024/01/14 07:26:24;;;;;;;46.10;18.87;;;2.60;96.60;;;;;;770107;186;27081;-75
2024/01/14 07:28:52;;;;;;;45.70;17.97;;;2.60;96.70;;;;;;771493;185;26483;-75
2024/01/14 07:31:21;;;;;;;41.93;17.73;;;2.60;96.60;;;;;;771486;185;26481;-75
2024/01/14 07:33:45;;;;;;;40.70;17.53;;;2.60;96.30;;;;;;771294;185;27010;-76
2024/01/14 07:36:12;;;;;;;43.87;17.13;;;2.60;96.40;;;;;;769949;185;26503;-75
2024/01/14 07:38:38;;;;;;;45.93;19.23;;;2.60;96.40;;;;;;770420;185;26624;-75
2024/01/14 07:41:06;;;;;;;41.93;17.73;;;2.60;96.30;;;;;;772968;186;26533;-75
2024/01/14 07:43:31;;;;;;;34.97;16.47;;;2.70;96.40;;;;;;766773;187;26488;-75
2024/01/14 07:45:58;;;;;;;43.17;18.10;;;2.70;96.20;;;;;;767091;185;26572;-75
2024/01/14 07:48:26;;;;;;;44.87;16.90;;;2.60;96.20;;;;;;764459;186;26510;-75
2024/01/14 07:50:51;;;;;;;38.97;17.30;;;2.60;96.10;;;;;;767177;187;26506;-75
2024/01/14 07:53:18;;;;;;;38.20;16.97;;;2.70;96.20;;;;;;765684;187;26641;-75
2024/01/14 07:55:44;;;;;;;45.33;19.30;;;2.60;96.20;;;;;;762973;182;26503;-75
2024/01/14 07:58:11;;;;;;;44.30;18.73;;;2.70;96.30;;;;;;766880;186;26549;-74
2024/01/14 08:00:38;;;;;;;44.20;18.37;;;2.70;96.20;;;;;;766764;186;26558;-74
2024/01/14 08:03:05;;;;;;;44.63;19.43;;;2.70;96.20;;;;;;761698;186;26476;-75
2024/01/14 08:05:32;;;;;;;40.67;17.60;;;2.80;96.30;;;;;;760220;187;26528;-74
2024/01/14 08:07:58;;;;;;;38.77;17.77;;;2.80;96.20;;;;;;761915;187;27085;-75
2024/01/14 08:10:25;;;;;;;38.17;17.77;;;2.80;96.00;;;;;;765302;187;26513;-74
2024/01/14 08:12:52;;;;;;;47.87;19.87;;;2.70;95.90;;;;;;766521;187;26544;-75
2024/01/14 08:15:18;;;;;;;41.17;19.33;;;2.80;96.20;;;;;;766524;186;26463;-75
2024/01/14 08:17:45;;;;;;;45.00;19.00;;;2.80;96.00;;;;;;763589;186;26531;-75
2024/01/14 08:20:11;;;;;;;43.70;18.77;;;2.70;95.70;;;;;;760100;189;26535;-75
2024/01/14 08:22:39;;;;;;;40.17;18.27;;;2.70;95.80;;;;;;760654;187;26562;-75
2024/01/14 08:25:05;;;;;;;42.10;18.07;;;2.70;95.70;;;;;;765952;187;27065;-75
2024/01/14 08:27:32;;;;;;;42.10;18.17;;;2.70;95.70;;;;;;765166;187;26515;-75
2024/01/14 08:29:58;;;;;;;32.67;15.17;;;2.70;95.70;;;;;;762080;183;26554;-75
2024/01/14 08:32:25;;;;;;;38.90;17.47;;;2.60;95.50;;;;;;763605;187;26556;-75
2024/01/14 08:34:51;;;;;;;35.07;17.40;;;2.60;95.50;;;;;;765556;187;26547;-75
2024/01/14 08:37:18;;;;;;;31.67;14.90;;;2.60;95.60;;;;;;765879;183;26569;-75
2024/01/14 08:39:44;;;;;;;36.07;16.10;;;2.70;95.80;;;;;;765906;187;27103;-75
2024/01/14 08:42:11;;;;;;;34.63;15.70;;;2.70;95.70;;;;;;765673;187;26549;-75
2024/01/14 08:44:38;;;;;;;32.13;15.07;;;2.70;95.60;;;;;;764458;182;27100;-76
2024/01/14 08:47:04;;;;;;;33.50;14.63;;;2.70;95.60;;;;;;765858;187;26535;-75
2024/01/14 08:49:31;;;;;;;34.10;15.23;;;2.70;95.50;;;;;;764003;187;27120;-75
2024/01/14 08:51:58;;;;;;;33.30;15.63;;;2.70;95.40;;;;;;765896;187;26526;-75
2024/01/14 08:54:24;;;;;;;33.43;15.57;;;2.70;95.40;;;;;;763498;187;27090;-75
2024/01/14 08:56:51;;;;;;;37.67;15.70;;;2.70;95.30;;;;;;765469;187;26522;-75
2024/01/14 08:59:17;;;;;;;31.50;14.40;;;2.70;95.40;;;;;;765017;185;26546;-75
2024/01/14 09:01:44;;;;;;;33.83;14.10;;;2.70;95.30;;;;;;761294;188;26524;-75
2024/01/14 09:04:11;;;;;;;33.37;14.03;;;2.70;95.40;;;;;;761759;187;26713;-75
2024/01/14 09:06:37;;;;;;;32.53;15.57;;;2.70;95.40;;;;;;766782;186;26531;-75
2024/01/14 09:09:04;;;;;;;36.87;15.47;;;2.70;95.40;;;;;;764164;186;26472;-75
2024/01/14 09:11:31;;;;;;;34.80;15.03;;;2.70;95.30;;;;;;766825;187;26483;-75
2024/01/14 09:13:57;;;;;;;33.97;14.73;;;2.70;95.50;;;;;;766564;183;26476;-75
2024/01/14 09:16:23;;;;;;;28.50;11.30;;;2.80;95.60;;;;;;763682;187;27034;-75
2024/01/14 09:18:50;;;;;;;29.60;13.43;;;2.70;95.00;;;;;;771914;185;26459;-75
2024/01/14 09:21:17;;;;;;;31.50;13.83;;;2.80;95.30;;;;;;772083;186;27188;-75
2024/01/14 09:23:43;;;;;;;28.83;14.37;;;2.80;95.10;;;;;;767075;187;26475;-74
2024/01/14 09:26:10;;;;;;;28.77;13.90;;;2.80;95.00;;;;;;773031;185;27030;-75
2024/01/14 09:28:36;;;;;;;30.10;13.33;;;2.80;95.20;;;;;;773408;184;26488;-75
2024/01/14 09:31:03;;;;;;;26.50;13.03;;;2.90;95.20;;;;;;773072;185;27009;-74
2024/01/14 09:33:30;;;;;;;27.83;13.07;;;2.80;94.80;;;;;;773016;184;26472;-75
2024/01/14 09:35:56;;;;;;;28.93;13.80;;;2.80;94.80;;;;;;772286;186;26506;-75
2024/01/14 09:38:23;;;;;;;31.47;14.20;;;2.90;95.00;;;;;;771804;184;26525;-75
2024/01/14 09:40:50;;;;;;;29.07;13.40;;;2.90;95.20;;;;;;764057;187;26528;-75
2024/01/14 09:43:16;;;;;;;29.47;14.40;;;2.90;95.00;;;;;;763703;187;27128;-75
2024/01/14 09:45:44;;;;;;;27.53;13.80;;;2.90;94.90;;;;;;765828;187;26524;-75
2024/01/14 09:48:09;;;;;;;29.77;14.60;;;2.90;94.80;;;;;;765742;187;27100;-75
2024/01/14 09:50:36;;;;;;;28.50;12.83;;;2.90;94.90;;;;;;765773;187;26534;-75
2024/01/14 09:53:04;;;;;;;34.20;15.00;;;2.90;94.80;;;;;;763844;184;26479;-76
2024/01/14 09:55:29;;;;;;;29.80;12.97;;;2.80;94.90;;;;;;763764;187;27071;-75
2024/01/14 09:57:56;;;;;;;29.03;14.17;;;2.80;95.00;;;;;;761816;187;26544;-75
2024/01/14 10:00:23;;;;;;;34.30;14.27;;;2.80;95.00;;;;;;760083;184;28124;-76
2024/01/14 10:02:49;;;;;;;32.13;13.90;;;2.80;95.20;;;;;;772369;185;26534;-75
2024/01/14 10:05:15;;;;;;;40.20;18.37;;;2.80;95.20;;;;;;772061;186;27057;-74
2024/01/14 10:07:43;;;;;;;54.60;24.37;;;2.70;95.40;;;;;;772791;184;26459;-76
2024/01/14 10:10:09;;;;;;;37.97;18.57;;;2.60;96.00;;;;;;766834;186;26502;-75
2024/01/14 10:12:35;;;;;;;45.67;20.13;;;2.40;96.90;;;;;;767403;186;26468;-76
2024/01/14 10:15:02;;;;;;;44.60;20.80;;;2.20;97.20;;;;;;765782;186;27134;-75
2024/01/14 10:17:29;;;;;;;42.07;17.53;;;2.10;97.70;;;;;;767098;187;26560;-75
2024/01/14 10:19:55;;;;;;;48.07;20.33;;;2.10;98.40;;;;;;764846;186;27036;-75
2024/01/14 10:22:22;;;;;;;69.13;29.30;;;2.10;98.80;;;;;;765261;186;26483;-74
2024/01/14 10:24:51;;;;;;;51.53;22.87;;;2.20;98.80;;;;;;767134;186;27040;-75
2024/01/14 10:27:18;;;;;;;37.00;18.43;;;2.20;98.80;;;;;;766025;186;26505;-75
2024/01/14 10:29:45;;;;;;;41.63;17.80;;;2.30;98.70;;;;;;764201;185;26476;-76
2024/01/14 10:32:11;;;;;;;38.00;16.87;;;2.30;98.60;;;;;;765184;187;26490;-76
2024/01/14 10:34:38;;;;;;;32.63;15.97;;;2.40;98.70;;;;;;773080;185;26451;-76
2024/01/14 10:37:04;;;;;;;19.63;9.43;;;2.40;98.50;;;;;;772454;185;26460;-75
2024/01/14 10:39:31;;;;;;;52.87;22.83;;;2.40;97.70;;;;;;773030;185;26442;-76
2024/01/14 10:41:58;;;;;;;52.20;24.07;;;2.40;97.80;;;;;;760612;187;27044;-76
2024/01/14 10:44:25;;;;;;;93.93;35.57;;;2.40;97.90;;;;;;763482;187;26552;-76
2024/01/14 10:46:51;;;;;;;118.07;45.67;;;2.40;97.80;;;;;;762551;186;26526;-76
2024/01/14 10:49:18;;;;;;;54.27;23.73;;;2.40;97.60;;;;;;774093;184;26525;-76
2024/01/14 10:51:44;;;;;;;40.67;17.50;;;2.40;97.70;;;;;;762850;187;26552;-77
2024/01/14 10:54:16;;;;;;;42.13;16.00;;;2.50;97.90;;;;;;759431;188;26510;-77
2024/01/14 10:56:43;;;;;;;35.43;16.27;;;2.50;97.60;;;;;;763052;185;26563;-76
2024/01/14 10:59:10;;;;;;;54.13;22.30;;;2.50;97.60;;;;;;765379;186;27058;-76
2024/01/14 11:01:37;;;;;;;42.93;16.63;;;2.50;97.10;;;;;;777080;184;26534;-76
2024/01/14 11:04:04;;;;;;;41.10;16.97;;;2.50;97.00;;;;;;765134;185;26557;-76
2024/01/14 11:06:30;;;;;;;28.33;14.00;;;2.60;97.20;;;;;;773908;184;27033;-77
2024/01/14 11:08:57;;;;;;;35.30;15.23;;;2.60;96.80;;;;;;764730;187;26513;-77
2024/01/14 11:11:34;;;;;;;31.17;14.17;;;2.60;96.90;;;;;;762612;187;26552;-77
2024/01/14 11:14:04;;;;;;;28.23;13.93;;;2.60;96.90;;;;;;767186;187;27053;-77
2024/01/14 11:16:30;;;;;;;33.07;15.93;;;2.60;96.90;;;;;;761697;187;26483;-76
2024/01/14 11:18:57;;;;;;;38.37;17.90;;;2.50;97.20;;;;;;763643;184;27120;-77
2024/01/14 11:21:32;;;;;;;43.97;19.20;;;2.30;97.50;;;;;;766819;184;26501;-77
2024/01/14 11:23:58;;;;;;;56.77;23.23;;;2.20;98.00;;;;;;776488;184;26461;-76
2024/01/14 11:26:25;;;;;;;49.60;23.40;;;2.20;98.40;;;;;;765541;187;27021;-76
2024/01/14 11:28:54;;;;;;;53.07;22.40;;;2.20;98.70;;;;;;765309;186;26549;-76
2024/01/14 11:31:19;;;;;;;48.53;20.23;;;2.30;99.00;;;;;;765493;186;26529;-75
2024/01/14 11:33:46;;;;;;;44.67;19.07;;;2.40;99.30;;;;;;768452;186;26509;-76
2024/01/14 11:36:13;;;;;;;57.40;24.67;;;2.40;99.30;;;;;;776575;185;26468;-77
2024/01/14 11:38:55;;;;;;;67.50;27.00;;;2.50;99.20;;;;;;762984;187;26579;-76
2024/01/14 11:41:26;;;;;;;118.40;38.53;;;2.50;98.30;;;;;;764259;187;26577;-75
2024/01/14 11:43:55;;;;;;;60.37;25.40;;;2.50;98.10;;;;;;761739;184;27002;-76
2024/01/14 11:46:35;;;;;;;75.10;31.47;;;2.50;98.20;;;;;;763929;187;26530;-76
2024/01/14 11:49:04;;;;;;;37.03;18.93;;;2.50;97.70;;;;;;761384;187;26482;-76
2024/01/14 11:51:32;;;;;;;65.87;28.50;;;2.50;97.30;;;;;;763446;187;27108;-76
2024/01/14 11:53:58;;;;;;;53.13;23.30;;;2.50;97.40;;;;;;775598;183;26530;-76
2024/01/14 11:56:29;;;;;;;106.07;39.67;;;2.50;97.40;;;;;;764294;187;26489;-77
2024/01/14 11:58:59;;;;;;;85.10;31.37;;;2.50;97.20;;;;;;761244;187;26569;-77
2024/01/14 12:01:28;;;;;;;142.07;50.93;;;2.50;97.30;;;;;;761129;188;26573;-77
2024/01/14 12:04:04;;;;;;;112.80;40.33;;;2.50;97.00;;;;;;757606;187;26559;-76
2024/01/14 12:06:39;;;;;;;63.67;27.40;;;2.50;96.90;;;;;;760859;186;27170;-76
2024/01/14 12:09:06;;;;;;;54.83;24.97;;;2.60;97.30;;;;;;761212;187;26531;-76
2024/01/14 12:11:33;;;;;;;121.50;45.10;;;2.60;96.40;;;;;;761106;187;27121;-77
2024/01/14 12:13:59;;;;;;;80.47;31.57;;;2.60;96.70;;;;;;760619;183;27038;-76
2024/01/14 12:16:26;;;;;;;115.97;41.20;;;2.60;96.60;;;;;;761250;187;26522;-77
2024/01/14 12:18:52;;;;;;;156.87;50.63;;;2.60;96.70;;;;;;764302;183;27071;-76
2024/01/14 12:21:19;;;;;;;80.33;32.37;;;2.50;96.20;;;;;;761738;187;26518;-76
2024/01/14 12:23:46;;;;;;;55.20;25.40;;;2.40;96.40;;;;;;773534;185;26506;-76
2024/01/14 12:26:12;;;;;;;41.10;20.77;;;2.40;97.10;;;;;;766065;185;26477;-76
2024/01/14 12:28:39;;;;;;;80.23;32.63;;;2.40;97.20;;;;;;765131;184;26497;-76
2024/01/14 12:31:06;;;;;;;107.90;43.17;;;2.40;97.40;;;;;;773953;185;27059;-76
2024/01/14 12:33:33;;;;;;;263.00;81.57;;;2.40;97.40;;;;;;765461;186;27170;-76